sensor_id;sensor_type;location;lat;lon;timestamp;temperature;humidity
80210;DHT22;69529;37.974;23.708;2023-04-22T00:02:20;25.10;46.50
80210;DHT22;69529;37.974;23.708;2023-04-22T00:04:48;25.10;46.30
80210;DHT22;69529;37.974;23.708;2023-04-22T00:07:16;25.10;46.00
80210;DHT22;69529;37.974;23.708;2023-04-22T00:09:44;25.10;45.90
80210;DHT22;69529;37.974;23.708;2023-04-22T00:12:12;25.10;45.70
80210;DHT22;69529;37.974;23.708;2023-04-22T00:14:40;25.00;45.40
80210;DHT22;69529;37.974;23.708;2023-04-22T00:17:07;25.00;45.30
80210;DHT22;69529;37.974;23.708;2023-04-22T00:19:35;25.00;44.90
80210;DHT22;69529;37.974;23.708;2023-04-22T00:22:03;25.00;44.80
80210;DHT22;69529;37.974;23.708;2023-04-22T00:24:30;25.00;44.50
80210;DHT22;69529;37.974;23.708;2023-04-22T00:26:58;25.00;44.30
80210;DHT22;69529;37.974;23.708;2023-04-22T00:29:26;25.00;44.10
80210;DHT22;69529;37.974;23.708;2023-04-22T00:31:54;25.00;44.00
80210;DHT22;69529;37.974;23.708;2023-04-22T00:34:21;25.00;43.80
80210;DHT22;69529;37.974;23.708;2023-04-22T00:36:49;24.90;43.60
80210;DHT22;69529;37.974;23.708;2023-04-22T00:39:17;24.90;43.40
80210;DHT22;69529;37.974;23.708;2023-04-22T00:41:45;24.90;43.40
80210;DHT22;69529;37.974;23.708;2023-04-22T00:44:13;25.00;43.10
80210;DHT22;69529;37.974;23.708;2023-04-22T00:46:40;24.90;43.00
80210;DHT22;69529;37.974;23.708;2023-04-22T00:49:08;24.90;42.80
80210;DHT22;69529;37.974;23.708;2023-04-22T00:51:36;24.90;42.70
80210;DHT22;69529;37.974;23.708;2023-04-22T00:54:03;24.90;42.60
80210;DHT22;69529;37.974;23.708;2023-04-22T00:56:32;24.80;42.50
80210;DHT22;69529;37.974;23.708;2023-04-22T00:59:03;24.80;42.40
80210;DHT22;69529;37.974;23.708;2023-04-22T01:01:31;24.80;42.40
80210;DHT22;69529;37.974;23.708;2023-04-22T01:03:59;24.70;42.30
80210;DHT22;69529;37.974;23.708;2023-04-22T01:06:29;24.70;42.30
80210;DHT22;69529;37.974;23.708;2023-04-22T01:09:00;24.60;42.30
80210;DHT22;69529;37.974;23.708;2023-04-22T01:11:27;24.60;42.30
80210;DHT22;69529;37.974;23.708;2023-04-22T01:13:56;24.60;42.30
80210;DHT22;69529;37.974;23.708;2023-04-22T01:16:24;24.60;42.10
80210;DHT22;69529;37.974;23.708;2023-04-22T01:18:53;24.70;42.10
80210;DHT22;69529;37.974;23.708;2023-04-22T01:21:21;24.70;42.00
80210;DHT22;69529;37.974;23.708;2023-04-22T01:23:49;24.70;41.90
80210;DHT22;69529;37.974;23.708;2023-04-22T01:26:17;24.70;41.80
80210;DHT22;69529;37.974;23.708;2023-04-22T01:28:45;24.70;41.70
80210;DHT22;69529;37.974;23.708;2023-04-22T01:31:13;24.70;41.70
80210;DHT22;69529;37.974;23.708;2023-04-22T01:33:41;24.70;41.80
80210;DHT22;69529;37.974;23.708;2023-04-22T01:36:11;24.70;41.70
80210;DHT22;69529;37.974;23.708;2023-04-22T01:38:39;24.70;41.80
80210;DHT22;69529;37.974;23.708;2023-04-22T01:41:07;24.70;41.70
80210;DHT22;69529;37.974;23.708;2023-04-22T01:43:35;24.60;41.70
80210;DHT22;69529;37.974;23.708;2023-04-22T01:46:05;24.60;41.80
80210;DHT22;69529;37.974;23.708;2023-04-22T01:48:33;24.60;41.70
80210;DHT22;69529;37.974;23.708;2023-04-22T01:51:02;24.60;41.60
80210;DHT22;69529;37.974;23.708;2023-04-22T01:53:30;24.60;41.60
80210;DHT22;69529;37.974;23.708;2023-04-22T01:55:58;24.60;41.60
80210;DHT22;69529;37.974;23.708;2023-04-22T01:58:28;24.60;41.60
80210;DHT22;69529;37.974;23.708;2023-04-22T02:00:56;24.60;41.60
80210;DHT22;69529;37.974;23.708;2023-04-22T02:03:24;24.60;41.70
80210;DHT22;69529;37.974;23.708;2023-04-22T02:05:51;24.60;41.70
80210;DHT22;69529;37.974;23.708;2023-04-22T02:08:19;24.40;42.00
80210;DHT22;69529;37.974;23.708;2023-04-22T02:10:47;24.40;42.10
80210;DHT22;69529;37.974;23.708;2023-04-22T02:13:14;24.10;42.60
80210;DHT22;69529;37.974;23.708;2023-04-22T02:15:42;24.10;43.00
80210;DHT22;69529;37.974;23.708;2023-04-22T02:18:10;24.10;43.10
80210;DHT22;69529;37.974;23.708;2023-04-22T02:20:38;24.20;43.20
80210;DHT22;69529;37.974;23.708;2023-04-22T02:23:05;24.20;43.20
80210;DHT22;69529;37.974;23.708;2023-04-22T02:25:33;24.10;43.20
80210;DHT22;69529;37.974;23.708;2023-04-22T02:28:01;24.20;43.20
80210;DHT22;69529;37.974;23.708;2023-04-22T02:30:29;24.10;43.20
80210;DHT22;69529;37.974;23.708;2023-04-22T02:32:56;24.20;43.20
80210;DHT22;69529;37.974;23.708;2023-04-22T02:35:24;24.30;43.30
80210;DHT22;69529;37.974;23.708;2023-04-22T02:37:52;24.20;43.30
80210;DHT22;69529;37.974;23.708;2023-04-22T02:40:19;24.20;43.50
80210;DHT22;69529;37.974;23.708;2023-04-22T02:42:47;24.30;43.30
80210;DHT22;69529;37.974;23.708;2023-04-22T02:45:15;24.30;43.20
80210;DHT22;69529;37.974;23.708;2023-04-22T02:47:42;24.30;43.10
80210;DHT22;69529;37.974;23.708;2023-04-22T02:50:10;24.40;43.10
80210;DHT22;69529;37.974;23.708;2023-04-22T02:52:38;24.30;42.60
80210;DHT22;69529;37.974;23.708;2023-04-22T02:55:06;24.40;43.20
80210;DHT22;69529;37.974;23.708;2023-04-22T02:57:34;24.40;43.20
80210;DHT22;69529;37.974;23.708;2023-04-22T03:00:02;24.40;43.10
80210;DHT22;69529;37.974;23.708;2023-04-22T03:02:30;24.40;43.00
80210;DHT22;69529;37.974;23.708;2023-04-22T03:04:57;24.40;43.00
80210;DHT22;69529;37.974;23.708;2023-04-22T03:07:26;24.40;43.00
80210;DHT22;69529;37.974;23.708;2023-04-22T03:09:54;24.40;43.00
80210;DHT22;69529;37.974;23.708;2023-04-22T03:12:21;24.40;43.00
80210;DHT22;69529;37.974;23.708;2023-04-22T03:14:49;24.40;43.00
80210;DHT22;69529;37.974;23.708;2023-04-22T03:17:17;24.40;42.90
80210;DHT22;69529;37.974;23.708;2023-04-22T03:19:45;24.40;42.90
80210;DHT22;69529;37.974;23.708;2023-04-22T03:22:13;24.50;42.80
80210;DHT22;69529;37.974;23.708;2023-04-22T03:24:41;24.50;42.90
80210;DHT22;69529;37.974;23.708;2023-04-22T03:27:09;24.50;42.70
80210;DHT22;69529;37.974;23.708;2023-04-22T03:29:37;24.60;42.60
80210;DHT22;69529;37.974;23.708;2023-04-22T03:32:04;24.60;42.40
80210;DHT22;69529;37.974;23.708;2023-04-22T03:34:32;24.60;42.30
80210;DHT22;69529;37.974;23.708;2023-04-22T03:37:01;24.60;42.20
80210;DHT22;69529;37.974;23.708;2023-04-22T03:39:29;24.60;42.10
80210;DHT22;69529;37.974;23.708;2023-04-22T03:41:56;24.60;42.10
80210;DHT22;69529;37.974;23.708;2023-04-22T03:44:24;24.60;42.00
80210;DHT22;69529;37.974;23.708;2023-04-22T03:46:52;24.60;42.00
80210;DHT22;69529;37.974;23.708;2023-04-22T03:49:19;24.60;41.90
80210;DHT22;69529;37.974;23.708;2023-04-22T03:51:47;24.60;41.80
80210;DHT22;69529;37.974;23.708;2023-04-22T03:54:14;24.60;41.70
80210;DHT22;69529;37.974;23.708;2023-04-22T03:56:42;24.40;41.70
80210;DHT22;69529;37.974;23.708;2023-04-22T03:59:10;24.40;41.90
80210;DHT22;69529;37.974;23.708;2023-04-22T04:01:37;24.30;41.90
80210;DHT22;69529;37.974;23.708;2023-04-22T04:04:05;24.30;41.70
80210;DHT22;69529;37.974;23.708;2023-04-22T04:06:33;24.30;42.20
80210;DHT22;69529;37.974;23.708;2023-04-22T04:09:00;24.30;41.60
80210;DHT22;69529;37.974;23.708;2023-04-22T04:11:30;24.40;41.50
80210;DHT22;69529;37.974;23.708;2023-04-22T04:13:58;24.40;41.40
80210;DHT22;69529;37.974;23.708;2023-04-22T04:16:25;24.40;41.30
80210;DHT22;69529;37.974;23.708;2023-04-22T04:18:53;24.50;41.20
80210;DHT22;69529;37.974;23.708;2023-04-22T04:21:21;24.50;41.10
80210;DHT22;69529;37.974;23.708;2023-04-22T04:23:48;24.50;41.10
80210;DHT22;69529;37.974;23.708;2023-04-22T04:26:16;24.60;41.00
80210;DHT22;69529;37.974;23.708;2023-04-22T04:28:43;24.60;40.90
80210;DHT22;69529;37.974;23.708;2023-04-22T04:31:11;24.60;40.90
80210;DHT22;69529;37.974;23.708;2023-04-22T04:33:39;24.60;40.90
80210;DHT22;69529;37.974;23.708;2023-04-22T04:36:07;24.70;40.80
80210;DHT22;69529;37.974;23.708;2023-04-22T04:38:35;24.70;40.70
80210;DHT22;69529;37.974;23.708;2023-04-22T04:41:03;24.70;41.30
80210;DHT22;69529;37.974;23.708;2023-04-22T04:43:31;24.80;40.60
80210;DHT22;69529;37.974;23.708;2023-04-22T04:45:58;24.90;40.40
80210;DHT22;69529;37.974;23.708;2023-04-22T04:48:26;24.90;40.30
80210;DHT22;69529;37.974;23.708;2023-04-22T04:50:54;24.90;40.20
80210;DHT22;69529;37.974;23.708;2023-04-22T04:53:22;25.00;40.20
80210;DHT22;69529;37.974;23.708;2023-04-22T04:55:49;25.00;40.20
80210;DHT22;69529;37.974;23.708;2023-04-22T04:58:17;25.10;40.20
80210;DHT22;69529;37.974;23.708;2023-04-22T05:00:45;25.10;40.20
80210;DHT22;69529;37.974;23.708;2023-04-22T05:03:13;25.10;40.30
80210;DHT22;69529;37.974;23.708;2023-04-22T05:05:41;25.10;40.30
80210;DHT22;69529;37.974;23.708;2023-04-22T05:08:08;25.20;40.30
80210;DHT22;69529;37.974;23.708;2023-04-22T05:10:36;25.20;40.20
80210;DHT22;69529;37.974;23.708;2023-04-22T05:13:04;25.30;40.00
80210;DHT22;69529;37.974;23.708;2023-04-22T05:15:31;25.40;40.20
80210;DHT22;69529;37.974;23.708;2023-04-22T05:17:59;25.40;40.10
80210;DHT22;69529;37.974;23.708;2023-04-22T05:20:27;25.40;40.00
80210;DHT22;69529;37.974;23.708;2023-04-22T05:22:55;25.50;40.00
80210;DHT22;69529;37.974;23.708;2023-04-22T05:25:22;25.60;39.80
80210;DHT22;69529;37.974;23.708;2023-04-22T05:27:50;25.60;39.80
80210;DHT22;69529;37.974;23.708;2023-04-22T05:30:18;25.70;39.70
80210;DHT22;69529;37.974;23.708;2023-04-22T05:32:45;25.90;40.10
80210;DHT22;69529;37.974;23.708;2023-04-22T05:35:13;25.90;39.50
80210;DHT22;69529;37.974;23.708;2023-04-22T05:37:41;26.10;39.40
80210;DHT22;69529;37.974;23.708;2023-04-22T05:40:09;26.30;39.20
80210;DHT22;69529;37.974;23.708;2023-04-22T05:42:37;26.40;38.90
80210;DHT22;69529;37.974;23.708;2023-04-22T05:45:05;26.60;38.80
80210;DHT22;69529;37.974;23.708;2023-04-22T05:47:33;26.80;38.30
80210;DHT22;69529;37.974;23.708;2023-04-22T05:50:01;27.00;38.10
80210;DHT22;69529;37.974;23.708;2023-04-22T05:52:29;27.20;37.70
80210;DHT22;69529;37.974;23.708;2023-04-22T05:54:57;27.30;37.30
80210;DHT22;69529;37.974;23.708;2023-04-22T05:57:25;27.40;37.50
80210;DHT22;69529;37.974;23.708;2023-04-22T05:59:52;27.30;37.40
80210;DHT22;69529;37.974;23.708;2023-04-22T06:02:20;27.30;37.50
80210;DHT22;69529;37.974;23.708;2023-04-22T06:04:47;27.30;37.50
80210;DHT22;69529;37.974;23.708;2023-04-22T06:07:15;27.30;37.30
80210;DHT22;69529;37.974;23.708;2023-04-22T06:09:43;27.40;37.10
80210;DHT22;69529;37.974;23.708;2023-04-22T06:12:11;27.40;37.30
80210;DHT22;69529;37.974;23.708;2023-04-22T06:14:38;27.40;37.30
80210;DHT22;69529;37.974;23.708;2023-04-22T06:17:06;27.30;37.40
80210;DHT22;69529;37.974;23.708;2023-04-22T06:19:36;27.30;37.50
80210;DHT22;69529;37.974;23.708;2023-04-22T06:22:04;27.30;37.50
80210;DHT22;69529;37.974;23.708;2023-04-22T06:24:31;27.40;37.50
80210;DHT22;69529;37.974;23.708;2023-04-22T06:26:59;27.40;37.40
80210;DHT22;69529;37.974;23.708;2023-04-22T06:29:27;27.40;37.30
80210;DHT22;69529;37.974;23.708;2023-04-22T06:31:55;27.50;37.20
80210;DHT22;69529;37.974;23.708;2023-04-22T06:34:23;27.40;37.30
80210;DHT22;69529;37.974;23.708;2023-04-22T06:36:50;27.30;37.50
80210;DHT22;69529;37.974;23.708;2023-04-22T06:39:19;27.10;37.80
80210;DHT22;69529;37.974;23.708;2023-04-22T06:41:47;27.10;38.00
80210;DHT22;69529;37.974;23.708;2023-04-22T06:44:15;27.00;38.00
80210;DHT22;69529;37.974;23.708;2023-04-22T06:46:43;27.00;38.80
80210;DHT22;69529;37.974;23.708;2023-04-22T06:49:12;26.90;38.20
80210;DHT22;69529;37.974;23.708;2023-04-22T06:51:39;26.90;38.20
80210;DHT22;69529;37.974;23.708;2023-04-22T06:54:07;26.90;38.20
80210;DHT22;69529;37.974;23.708;2023-04-22T06:56:35;26.90;38.30
80210;DHT22;69529;37.974;23.708;2023-04-22T06:59:02;26.80;38.50
80210;DHT22;69529;37.974;23.708;2023-04-22T07:01:30;26.80;38.50
80210;DHT22;69529;37.974;23.708;2023-04-22T07:03:58;26.70;38.60
80210;DHT22;69529;37.974;23.708;2023-04-22T07:06:25;26.80;38.60
80210;DHT22;69529;37.974;23.708;2023-04-22T07:08:53;26.80;38.50
80210;DHT22;69529;37.974;23.708;2023-04-22T07:11:21;26.80;38.40
80210;DHT22;69529;37.974;23.708;2023-04-22T07:13:48;26.80;38.30
80210;DHT22;69529;37.974;23.708;2023-04-22T07:16:16;26.80;38.40
80210;DHT22;69529;37.974;23.708;2023-04-22T07:18:44;26.80;38.40
80210;DHT22;69529;37.974;23.708;2023-04-22T07:21:11;26.70;38.50
80210;DHT22;69529;37.974;23.708;2023-04-22T07:23:39;26.60;38.50
80210;DHT22;69529;37.974;23.708;2023-04-22T07:26:06;26.70;38.50
80210;DHT22;69529;37.974;23.708;2023-04-22T07:28:34;26.60;38.50
80210;DHT22;69529;37.974;23.708;2023-04-22T07:31:02;26.60;38.50
80210;DHT22;69529;37.974;23.708;2023-04-22T07:33:29;26.60;38.60
80210;DHT22;69529;37.974;23.708;2023-04-22T07:35:57;26.60;39.40
80210;DHT22;69529;37.974;23.708;2023-04-22T07:38:25;26.50;38.60
80210;DHT22;69529;37.974;23.708;2023-04-22T07:40:53;26.50;38.60
80210;DHT22;69529;37.974;23.708;2023-04-22T07:43:20;26.60;38.50
80210;DHT22;69529;37.974;23.708;2023-04-22T07:45:48;26.50;38.50
80210;DHT22;69529;37.974;23.708;2023-04-22T07:48:16;26.60;38.50
80210;DHT22;69529;37.974;23.708;2023-04-22T07:50:43;26.60;38.60
80210;DHT22;69529;37.974;23.708;2023-04-22T07:53:11;26.50;38.50
80210;DHT22;69529;37.974;23.708;2023-04-22T07:55:41;26.50;38.60
80210;DHT22;69529;37.974;23.708;2023-04-22T07:58:08;26.50;38.60
80210;DHT22;69529;37.974;23.708;2023-04-22T08:00:36;26.50;38.60
80210;DHT22;69529;37.974;23.708;2023-04-22T08:03:04;26.50;38.60
80210;DHT22;69529;37.974;23.708;2023-04-22T08:05:32;26.50;38.50
80210;DHT22;69529;37.974;23.708;2023-04-22T08:07:59;26.50;38.50
80210;DHT22;69529;37.974;23.708;2023-04-22T08:10:27;26.50;38.60
80210;DHT22;69529;37.974;23.708;2023-04-22T08:12:55;26.60;38.60
80210;DHT22;69529;37.974;23.708;2023-04-22T08:15:23;26.50;38.60
80210;DHT22;69529;37.974;23.708;2023-04-22T08:17:51;26.50;38.70
80210;DHT22;69529;37.974;23.708;2023-04-22T08:20:18;26.50;38.70
80210;DHT22;69529;37.974;23.708;2023-04-22T08:22:46;26.50;38.90
80210;DHT22;69529;37.974;23.708;2023-04-22T08:25:16;26.50;38.90
80210;DHT22;69529;37.974;23.708;2023-04-22T08:27:43;26.50;39.00
80210;DHT22;69529;37.974;23.708;2023-04-22T08:30:11;26.40;39.00
80210;DHT22;69529;37.974;23.708;2023-04-22T08:32:39;26.40;39.10
80210;DHT22;69529;37.974;23.708;2023-04-22T08:35:07;26.40;39.10
80210;DHT22;69529;37.974;23.708;2023-04-22T08:37:35;26.40;39.20
80210;DHT22;69529;37.974;23.708;2023-04-22T08:40:03;26.40;39.20
80210;DHT22;69529;37.974;23.708;2023-04-22T08:42:31;26.40;39.20
80210;DHT22;69529;37.974;23.708;2023-04-22T08:45:00;26.40;39.20
80210;DHT22;69529;37.974;23.708;2023-04-22T08:47:29;26.30;39.10
80210;DHT22;69529;37.974;23.708;2023-04-22T08:49:58;26.30;39.10
80210;DHT22;69529;37.974;23.708;2023-04-22T08:52:28;26.30;39.00
80210;DHT22;69529;37.974;23.708;2023-04-22T08:54:56;26.40;38.90
80210;DHT22;69529;37.974;23.708;2023-04-22T08:57:25;26.30;38.90
80210;DHT22;69529;37.974;23.708;2023-04-22T08:59:53;26.30;38.70
80210;DHT22;69529;37.974;23.708;2023-04-22T09:02:23;26.30;38.70
80210;DHT22;69529;37.974;23.708;2023-04-22T09:04:52;26.30;38.60
80210;DHT22;69529;37.974;23.708;2023-04-22T09:07:27;26.30;38.60
80210;DHT22;69529;37.974;23.708;2023-04-22T09:09:57;26.30;38.30
80210;DHT22;69529;37.974;23.708;2023-04-22T09:12:25;26.30;38.10
80210;DHT22;69529;37.974;23.708;2023-04-22T09:14:54;26.20;37.90
80210;DHT22;69529;37.974;23.708;2023-04-22T09:17:34;26.20;37.90
80210;DHT22;69529;37.974;23.708;2023-04-22T09:20:05;26.30;38.00
80210;DHT22;69529;37.974;23.708;2023-04-22T09:22:40;26.30;37.90
80210;DHT22;69529;37.974;23.708;2023-04-22T09:25:19;26.30;37.70
80210;DHT22;69529;37.974;23.708;2023-04-22T09:27:54;26.30;37.70
80210;DHT22;69529;37.974;23.708;2023-04-22T09:30:32;26.30;37.60
80210;DHT22;69529;37.974;23.708;2023-04-22T09:33:01;26.20;37.50
80210;DHT22;69529;37.974;23.708;2023-04-22T09:38:01;26.30;37.40
80210;DHT22;69529;37.974;23.708;2023-04-22T09:40:30;26.30;37.40
80210;DHT22;69529;37.974;23.708;2023-04-22T09:43:01;26.30;37.40
80210;DHT22;69529;37.974;23.708;2023-04-22T09:45:31;26.30;37.30
80210;DHT22;69529;37.974;23.708;2023-04-22T09:48:02;26.30;37.90
80210;DHT22;69529;37.974;23.708;2023-04-22T09:50:29;26.30;37.30
80210;DHT22;69529;37.974;23.708;2023-04-22T09:53:02;26.30;37.10
80210;DHT22;69529;37.974;23.708;2023-04-22T09:55:32;26.30;36.90
80210;DHT22;69529;37.974;23.708;2023-04-22T09:58:09;26.30;37.00
80210;DHT22;69529;37.974;23.708;2023-04-22T10:00:35;26.30;37.00
80210;DHT22;69529;37.974;23.708;2023-04-22T10:03:04;26.30;37.00
80210;DHT22;69529;37.974;23.708;2023-04-22T10:05:32;26.40;37.00
80210;DHT22;69529;37.974;23.708;2023-04-22T10:08:07;26.40;37.10
80210;DHT22;69529;37.974;23.708;2023-04-22T10:10:35;26.30;37.30
80210;DHT22;69529;37.974;23.708;2023-04-22T10:13:04;26.40;37.50
80210;DHT22;69529;37.974;23.708;2023-04-22T10:15:35;26.40;37.40
80210;DHT22;69529;37.974;23.708;2023-04-22T10:18:06;26.40;37.50
80210;DHT22;69529;37.974;23.708;2023-04-22T10:20:35;26.40;37.50
80210;DHT22;69529;37.974;23.708;2023-04-22T10:23:04;26.40;37.60
80210;DHT22;69529;37.974;23.708;2023-04-22T10:25:33;26.40;37.70
80210;DHT22;69529;37.974;23.708;2023-04-22T10:28:03;26.40;37.80
80210;DHT22;69529;37.974;23.708;2023-04-22T10:30:32;26.30;37.80
80210;DHT22;69529;37.974;23.708;2023-04-22T10:36:10;26.30;38.10
80210;DHT22;69529;37.974;23.708;2023-04-22T10:38:40;26.20;38.20
80210;DHT22;69529;37.974;23.708;2023-04-22T10:41:15;26.20;38.40
80210;DHT22;69529;37.974;23.708;2023-04-22T10:43:48;26.20;38.40
80210;DHT22;69529;37.974;23.708;2023-04-22T10:49:22;26.20;38.50
80210;DHT22;69529;37.974;23.708;2023-04-22T10:51:58;26.20;38.50
80210;DHT22;69529;37.974;23.708;2023-04-22T10:57:08;26.20;38.60
80210;DHT22;69529;37.974;23.708;2023-04-22T10:59:49;26.30;38.60
80210;DHT22;69529;37.974;23.708;2023-04-22T11:02:16;26.30;38.70
80210;DHT22;69529;37.974;23.708;2023-04-22T11:04:44;26.30;38.70
80210;DHT22;69529;37.974;23.708;2023-04-22T11:10:07;26.20;38.70
80210;DHT22;69529;37.974;23.708;2023-04-22T11:15:10;26.30;38.80
80210;DHT22;69529;37.974;23.708;2023-04-22T11:17:39;26.20;38.70
80210;DHT22;69529;37.974;23.708;2023-04-22T11:20:08;26.20;38.70
80210;DHT22;69529;37.974;23.708;2023-04-22T11:22:40;26.20;38.70
80210;DHT22;69529;37.974;23.708;2023-04-22T11:25:09;26.30;38.70
80210;DHT22;69529;37.974;23.708;2023-04-22T11:27:38;26.30;38.60
80210;DHT22;69529;37.974;23.708;2023-04-22T11:30:17;26.20;38.40
80210;DHT22;69529;37.974;23.708;2023-04-22T11:32:46;26.30;38.50
80210;DHT22;69529;37.974;23.708;2023-04-22T11:35:19;26.30;38.50
80210;DHT22;69529;37.974;23.708;2023-04-22T11:37:49;26.30;38.50
80210;DHT22;69529;37.974;23.708;2023-04-22T11:40:20;26.30;38.40
80210;DHT22;69529;37.974;23.708;2023-04-22T11:42:48;26.20;38.40
80210;DHT22;69529;37.974;23.708;2023-04-22T11:45:16;26.20;38.40
80210;DHT22;69529;37.974;23.708;2023-04-22T11:47:44;26.20;38.50
80210;DHT22;69529;37.974;23.708;2023-04-22T11:50:13;26.30;38.40
80210;DHT22;69529;37.974;23.708;2023-04-22T11:52:52;26.20;38.30
80210;DHT22;69529;37.974;23.708;2023-04-22T11:55:34;26.30;38.20
80210;DHT22;69529;37.974;23.708;2023-04-22T12:00:38;26.30;38.50
80210;DHT22;69529;37.974;23.708;2023-04-22T12:03:18;26.20;38.40
80210;DHT22;69529;37.974;23.708;2023-04-22T12:06:04;26.20;38.40
80210;DHT22;69529;37.974;23.708;2023-04-22T12:08:33;26.30;38.40
80210;DHT22;69529;37.974;23.708;2023-04-22T12:11:05;26.30;38.30
80210;DHT22;69529;37.974;23.708;2023-04-22T12:16:11;26.30;38.30
80210;DHT22;69529;37.974;23.708;2023-04-22T12:18:53;26.30;38.40
80210;DHT22;69529;37.974;23.708;2023-04-22T12:21:23;26.20;38.50
80210;DHT22;69529;37.974;23.708;2023-04-22T12:23:59;26.20;38.70
80210;DHT22;69529;37.974;23.708;2023-04-22T12:26:29;26.10;38.60
80210;DHT22;69529;37.974;23.708;2023-04-22T12:28:57;26.20;38.70
80210;DHT22;69529;37.974;23.708;2023-04-22T12:31:26;26.20;39.40
80210;DHT22;69529;37.974;23.708;2023-04-22T12:33:55;26.20;38.80
80210;DHT22;69529;37.974;23.708;2023-04-22T12:36:22;26.10;39.00
80210;DHT22;69529;37.974;23.708;2023-04-22T12:38:52;26.00;39.00
80210;DHT22;69529;37.974;23.708;2023-04-22T12:41:19;26.00;38.90
80210;DHT22;69529;37.974;23.708;2023-04-22T12:43:49;26.00;38.90
80210;DHT22;69529;37.974;23.708;2023-04-22T12:46:18;26.10;39.00
80210;DHT22;69529;37.974;23.708;2023-04-22T12:48:45;26.10;38.90
80210;DHT22;69529;37.974;23.708;2023-04-22T12:51:13;26.10;38.80
80210;DHT22;69529;37.974;23.708;2023-04-22T12:53:41;26.20;38.80
80210;DHT22;69529;37.974;23.708;2023-04-22T12:56:08;26.20;38.80
80210;DHT22;69529;37.974;23.708;2023-04-22T12:58:36;26.20;38.60
80210;DHT22;69529;37.974;23.708;2023-04-22T13:01:03;26.30;38.60
80210;DHT22;69529;37.974;23.708;2023-04-22T13:03:31;26.30;38.50
80210;DHT22;69529;37.974;23.708;2023-04-22T13:05:59;26.30;39.20
80210;DHT22;69529;37.974;23.708;2023-04-22T13:08:27;26.20;38.50
80210;DHT22;69529;37.974;23.708;2023-04-22T13:10:55;26.20;38.50
80210;DHT22;69529;37.974;23.708;2023-04-22T13:13:24;26.20;38.70
80210;DHT22;69529;37.974;23.708;2023-04-22T13:15:52;26.10;38.30
80210;DHT22;69529;37.974;23.708;2023-04-22T13:18:21;26.00;38.00
80210;DHT22;69529;37.974;23.708;2023-04-22T13:20:49;25.90;38.00
80210;DHT22;69529;37.974;23.708;2023-04-22T13:23:16;25.90;37.80
80210;DHT22;69529;37.974;23.708;2023-04-22T13:25:46;25.70;37.60
80210;DHT22;69529;37.974;23.708;2023-04-22T13:28:14;25.60;37.60
80210;DHT22;69529;37.974;23.708;2023-04-22T13:30:41;25.60;37.70
80210;DHT22;69529;37.974;23.708;2023-04-22T13:33:09;25.40;38.00
80210;DHT22;69529;37.974;23.708;2023-04-22T13:35:37;25.40;38.20
80210;DHT22;69529;37.974;23.708;2023-04-22T13:38:05;25.30;38.40
80210;DHT22;69529;37.974;23.708;2023-04-22T13:40:33;25.30;38.50
80210;DHT22;69529;37.974;23.708;2023-04-22T13:43:01;25.20;38.70
80210;DHT22;69529;37.974;23.708;2023-04-22T13:45:29;25.10;39.10
80210;DHT22;69529;37.974;23.708;2023-04-22T13:47:57;25.00;39.40
80210;DHT22;69529;37.974;23.708;2023-04-22T13:50:24;25.00;39.70
80210;DHT22;69529;37.974;23.708;2023-04-22T13:52:52;25.00;39.90
80210;DHT22;69529;37.974;23.708;2023-04-22T13:55:20;25.00;39.90
80210;DHT22;69529;37.974;23.708;2023-04-22T13:57:49;25.00;40.10
80210;DHT22;69529;37.974;23.708;2023-04-22T14:00:17;25.10;39.90
80210;DHT22;69529;37.974;23.708;2023-04-22T14:02:46;25.10;39.70
80210;DHT22;69529;37.974;23.708;2023-04-22T14:05:13;25.00;39.90
80210;DHT22;69529;37.974;23.708;2023-04-22T14:07:41;25.00;39.90
80210;DHT22;69529;37.974;23.708;2023-04-22T14:10:09;24.80;40.30
80210;DHT22;69529;37.974;23.708;2023-04-22T14:12:38;24.80;40.70
80210;DHT22;69529;37.974;23.708;2023-04-22T14:15:07;24.70;41.30
80210;DHT22;69529;37.974;23.708;2023-04-22T14:17:36;24.80;41.00
80210;DHT22;69529;37.974;23.708;2023-04-22T14:20:04;24.80;41.00
80210;DHT22;69529;37.974;23.708;2023-04-22T14:22:32;24.70;41.20
80210;DHT22;69529;37.974;23.708;2023-04-22T14:25:00;24.60;41.70
80210;DHT22;69529;37.974;23.708;2023-04-22T14:27:28;24.50;41.90
80210;DHT22;69529;37.974;23.708;2023-04-22T14:29:55;24.30;42.30
80210;DHT22;69529;37.974;23.708;2023-04-22T14:32:23;24.40;42.40
80210;DHT22;69529;37.974;23.708;2023-04-22T14:34:51;24.40;42.50
80210;DHT22;69529;37.974;23.708;2023-04-22T14:37:19;24.40;42.60
80210;DHT22;69529;37.974;23.708;2023-04-22T14:39:46;24.40;42.80
80210;DHT22;69529;37.974;23.708;2023-04-22T14:42:14;24.30;43.10
80210;DHT22;69529;37.974;23.708;2023-04-22T14:44:43;24.40;43.30
80210;DHT22;69529;37.974;23.708;2023-04-22T14:47:11;24.30;43.40
80210;DHT22;69529;37.974;23.708;2023-04-22T14:49:39;24.30;43.50
80210;DHT22;69529;37.974;23.708;2023-04-22T14:52:07;24.30;43.70
80210;DHT22;69529;37.974;23.708;2023-04-22T14:54:35;24.30;43.60
80210;DHT22;69529;37.974;23.708;2023-04-22T14:57:02;24.20;44.00
80210;DHT22;69529;37.974;23.708;2023-04-22T14:59:30;24.20;44.00
80210;DHT22;69529;37.974;23.708;2023-04-22T15:01:58;24.10;44.00
80210;DHT22;69529;37.974;23.708;2023-04-22T15:04:26;24.10;44.00
80210;DHT22;69529;37.974;23.708;2023-04-22T15:06:53;24.20;43.90
80210;DHT22;69529;37.974;23.708;2023-04-22T15:09:23;24.10;43.90
80210;DHT22;69529;37.974;23.708;2023-04-22T15:11:51;24.10;43.90
80210;DHT22;69529;37.974;23.708;2023-04-22T15:14:20;24.00;44.10
80210;DHT22;69529;37.974;23.708;2023-04-22T15:16:47;24.00;44.30
80210;DHT22;69529;37.974;23.708;2023-04-22T15:19:15;24.00;44.60
80210;DHT22;69529;37.974;23.708;2023-04-22T15:21:43;23.90;44.90
80210;DHT22;69529;37.974;23.708;2023-04-22T15:24:12;23.90;45.10
80210;DHT22;69529;37.974;23.708;2023-04-22T15:26:39;23.90;45.30
80210;DHT22;69529;37.974;23.708;2023-04-22T15:29:07;23.90;45.70
80210;DHT22;69529;37.974;23.708;2023-04-22T15:31:35;23.90;46.10
80210;DHT22;69529;37.974;23.708;2023-04-22T15:34:03;23.90;46.50
80210;DHT22;69529;37.974;23.708;2023-04-22T15:36:30;23.90;46.50
80210;DHT22;69529;37.974;23.708;2023-04-22T15:38:58;23.90;46.80
80210;DHT22;69529;37.974;23.708;2023-04-22T15:41:26;23.80;47.00
80210;DHT22;69529;37.974;23.708;2023-04-22T15:43:54;23.70;47.50
80210;DHT22;69529;37.974;23.708;2023-04-22T15:46:22;23.60;47.60